sensor_id;sensor_type;location;lat;lon;timestamp;P1;durP1;ratioP1;P2;durP2;ratioP2
7703;SDS011;3894;49.700;10.770;2023-02-15T00:00:16;26.17;;;7.45;;
7703;SDS011;3894;49.700;10.770;2023-02-15T00:02:42;24.40;;;7.72;;
7703;SDS011;3894;49.700;10.770;2023-02-15T00:05:08;31.13;;;8.75;;
7703;SDS011;3894;49.700;10.770;2023-02-15T00:07:34;29.38;;;8.40;;
7703;SDS011;3894;49.700;10.770;2023-02-15T00:10:00;24.15;;;8.55;;
7703;SDS011;3894;49.700;10.770;2023-02-15T00:12:25;30.45;;;8.77;;
7703;SDS011;3894;49.700;10.770;2023-02-15T00:14:51;30.88;;;8.55;;
7703;SDS011;3894;49.700;10.770;2023-02-15T00:17:16;26.02;;;8.10;;
7703;SDS011;3894;49.700;10.770;2023-02-15T00:19:42;23.17;;;7.22;;
7703;SDS011;3894;49.700;10.770;2023-02-15T00:22:08;25.45;;;8.38;;
7703;SDS011;3894;49.700;10.770;2023-02-15T00:24:33;23.58;;;7.18;;
7703;SDS011;3894;49.700;10.770;2023-02-15T00:26:59;29.25;;;7.32;;
7703;SDS011;3894;49.700;10.770;2023-02-15T00:29:25;25.33;;;7.25;;
7703;SDS011;3894;49.700;10.770;2023-02-15T00:31:51;24.08;;;7.40;;
7703;SDS011;3894;49.700;10.770;2023-02-15T00:34:18;20.42;;;6.75;;
7703;SDS011;3894;49.700;10.770;2023-02-15T00:36:46;28.02;;;7.85;;
7703;SDS011;3894;49.700;10.770;2023-02-15T00:39:12;22.60;;;7.43;;
7703;SDS011;3894;49.700;10.770;2023-02-15T00:41:39;30.42;;;6.88;;
7703;SDS011;3894;49.700;10.770;2023-02-15T00:44:05;27.48;;;7.78;;
7703;SDS011;3894;49.700;10.770;2023-02-15T00:46:31;24.77;;;7.47;;
7703;SDS011;3894;49.700;10.770;2023-02-15T00:48:57;22.60;;;7.43;;
7703;SDS011;3894;49.700;10.770;2023-02-15T00:51:23;26.10;;;8.98;;
7703;SDS011;3894;49.700;10.770;2023-02-15T00:53:49;27.42;;;7.88;;
7703;SDS011;3894;49.700;10.770;2023-02-15T00:56:15;26.73;;;8.32;;
7703;SDS011;3894;49.700;10.770;2023-02-15T00:58:40;23.40;;;7.03;;
7703;SDS011;3894;49.700;10.770;2023-02-15T01:01:08;26.25;;;8.82;;
7703;SDS011;3894;49.700;10.770;2023-02-15T01:03:38;31.75;;;7.78;;
7703;SDS011;3894;49.700;10.770;2023-02-15T01:06:03;26.77;;;8.18;;
7703;SDS011;3894;49.700;10.770;2023-02-15T01:08:29;18.35;;;6.80;;
7703;SDS011;3894;49.700;10.770;2023-02-15T01:10:55;27.48;;;8.55;;
7703;SDS011;3894;49.700;10.770;2023-02-15T01:13:21;24.00;;;7.88;;
7703;SDS011;3894;49.700;10.770;2023-02-15T01:15:52;26.38;;;8.10;;
7703;SDS011;3894;49.700;10.770;2023-02-15T01:18:19;27.40;;;8.90;;
7703;SDS011;3894;49.700;10.770;2023-02-15T01:20:45;32.08;;;8.00;;
7703;SDS011;3894;49.700;10.770;2023-02-15T01:23:12;34.10;;;8.30;;
7703;SDS011;3894;49.700;10.770;2023-02-15T01:25:37;28.35;;;8.90;;
7703;SDS011;3894;49.700;10.770;2023-02-15T01:28:03;31.92;;;10.30;;
7703;SDS011;3894;49.700;10.770;2023-02-15T01:30:30;25.58;;;7.50;;
7703;SDS011;3894;49.700;10.770;2023-02-15T01:32:56;28.00;;;9.40;;
7703;SDS011;3894;49.700;10.770;2023-02-15T01:35:22;25.65;;;8.57;;
7703;SDS011;3894;49.700;10.770;2023-02-15T01:37:47;30.05;;;8.43;;
7703;SDS011;3894;49.700;10.770;2023-02-15T01:40:14;22.98;;;7.50;;
7703;SDS011;3894;49.700;10.770;2023-02-15T01:42:42;31.83;;;8.38;;
7703;SDS011;3894;49.700;10.770;2023-02-15T01:45:17;31.55;;;9.10;;
7703;SDS011;3894;49.700;10.770;2023-02-15T01:48:05;25.10;;;8.30;;
7703;SDS011;3894;49.700;10.770;2023-02-15T01:50:44;28.17;;;8.85;;
7703;SDS011;3894;49.700;10.770;2023-02-15T01:53:21;27.90;;;7.78;;
7703;SDS011;3894;49.700;10.770;2023-02-15T01:56:11;25.65;;;8.50;;
7703;SDS011;3894;49.700;10.770;2023-02-15T01:58:43;29.45;;;8.07;;
7703;SDS011;3894;49.700;10.770;2023-02-15T02:01:12;26.23;;;8.88;;
7703;SDS011;3894;49.700;10.770;2023-02-15T02:08:57;25.33;;;8.00;;
7703;SDS011;3894;49.700;10.770;2023-02-15T02:11:23;26.63;;;8.30;;
7703;SDS011;3894;49.700;10.770;2023-02-15T02:13:49;26.58;;;8.25;;
7703;SDS011;3894;49.700;10.770;2023-02-15T02:16:24;26.10;;;9.40;;
7703;SDS011;3894;49.700;10.770;2023-02-15T02:19:05;26.70;;;9.07;;
7703;SDS011;3894;49.700;10.770;2023-02-15T02:24:28;29.92;;;9.05;;
7703;SDS011;3894;49.700;10.770;2023-02-15T02:30:17;31.83;;;9.52;;
7703;SDS011;3894;49.700;10.770;2023-02-15T02:36:20;32.33;;;8.90;;
7703;SDS011;3894;49.700;10.770;2023-02-15T02:38:44;26.58;;;9.13;;
7703;SDS011;3894;49.700;10.770;2023-02-15T02:41:32;27.73;;;9.70;;
7703;SDS011;3894;49.700;10.770;2023-02-15T02:47:12;28.00;;;9.48;;
7703;SDS011;3894;49.700;10.770;2023-02-15T02:49:42;25.85;;;9.90;;
7703;SDS011;3894;49.700;10.770;2023-02-15T02:55:16;24.17;;;8.27;;
7703;SDS011;3894;49.700;10.770;2023-02-15T03:00:59;26.45;;;8.77;;
7703;SDS011;3894;49.700;10.770;2023-02-15T03:03:50;28.20;;;9.90;;
7703;SDS011;3894;49.700;10.770;2023-02-15T03:06:55;28.05;;;9.90;;
7703;SDS011;3894;49.700;10.770;2023-02-15T03:09:27;26.38;;;8.73;;
7703;SDS011;3894;49.700;10.770;2023-02-15T03:12:06;27.33;;;9.68;;
7703;SDS011;3894;49.700;10.770;2023-02-15T03:14:44;27.05;;;9.15;;
7703;SDS011;3894;49.700;10.770;2023-02-15T03:17:13;34.42;;;8.15;;
7703;SDS011;3894;49.700;10.770;2023-02-15T03:19:41;29.00;;;8.95;;
7703;SDS011;3894;49.700;10.770;2023-02-15T03:22:12;29.42;;;9.05;;
7703;SDS011;3894;49.700;10.770;2023-02-15T03:24:48;25.77;;;9.13;;
7703;SDS011;3894;49.700;10.770;2023-02-15T03:27:35;31.88;;;9.82;;
7703;SDS011;3894;49.700;10.770;2023-02-15T03:30:08;30.58;;;8.85;;
7703;SDS011;3894;49.700;10.770;2023-02-15T03:32:35;27.13;;;7.93;;
7703;SDS011;3894;49.700;10.770;2023-02-15T03:35:04;29.13;;;8.75;;
7703;SDS011;3894;49.700;10.770;2023-02-15T03:37:36;35.13;;;9.82;;
7703;SDS011;3894;49.700;10.770;2023-02-15T03:45:55;24.75;;;7.90;;
7703;SDS011;3894;49.700;10.770;2023-02-15T03:48:28;22.73;;;8.18;;
7703;SDS011;3894;49.700;10.770;2023-02-15T03:51:00;24.52;;;8.27;;
7703;SDS011;3894;49.700;10.770;2023-02-15T03:53:47;21.95;;;8.60;;
7703;SDS011;3894;49.700;10.770;2023-02-15T03:56:14;19.83;;;8.38;;
7703;SDS011;3894;49.700;10.770;2023-02-15T03:58:40;23.98;;;8.10;;
7703;SDS011;3894;49.700;10.770;2023-02-15T04:04:36;23.60;;;7.68;;
7703;SDS011;3894;49.700;10.770;2023-02-15T04:07:04;21.85;;;8.32;;
7703;SDS011;3894;49.700;10.770;2023-02-15T04:09:31;25.27;;;10.02;;
7703;SDS011;3894;49.700;10.770;2023-02-15T04:12:15;21.52;;;6.90;;
7703;SDS011;3894;49.700;10.770;2023-02-15T04:14:41;22.70;;;8.00;;
7703;SDS011;3894;49.700;10.770;2023-02-15T04:17:25;20.17;;;8.35;;
7703;SDS011;3894;49.700;10.770;2023-02-15T04:19:51;27.33;;;9.23;;
7703;SDS011;3894;49.700;10.770;2023-02-15T04:22:35;25.40;;;8.13;;
7703;SDS011;3894;49.700;10.770;2023-02-15T04:25:19;22.33;;;6.97;;
7703;SDS011;3894;49.700;10.770;2023-02-15T04:27:47;24.20;;;7.15;;
7703;SDS011;3894;49.700;10.770;2023-02-15T04:30:17;24.95;;;8.27;;
7703;SDS011;3894;49.700;10.770;2023-02-15T04:32:45;24.38;;;7.88;;
7703;SDS011;3894;49.700;10.770;2023-02-15T04:35:11;24.92;;;7.95;;
7703;SDS011;3894;49.700;10.770;2023-02-15T04:37:37;23.63;;;8.43;;
7703;SDS011;3894;49.700;10.770;2023-02-15T04:40:04;24.70;;;8.13;;
7703;SDS011;3894;49.700;10.770;2023-02-15T04:42:30;31.10;;;9.40;;
7703;SDS011;3894;49.700;10.770;2023-02-15T04:44:56;22.00;;;7.60;;
7703;SDS011;3894;49.700;10.770;2023-02-15T04:47:21;21.73;;;7.65;;
7703;SDS011;3894;49.700;10.770;2023-02-15T04:49:47;24.45;;;8.70;;
7703;SDS011;3894;49.700;10.770;2023-02-15T04:52:13;28.42;;;9.85;;
7703;SDS011;3894;49.700;10.770;2023-02-15T04:54:38;29.75;;;9.10;;
7703;SDS011;3894;49.700;10.770;2023-02-15T04:57:04;22.30;;;7.60;;
7703;SDS011;3894;49.700;10.770;2023-02-15T04:59:31;21.35;;;8.00;;
7703;SDS011;3894;49.700;10.770;2023-02-15T05:01:56;28.02;;;8.70;;
7703;SDS011;3894;49.700;10.770;2023-02-15T05:04:22;23.40;;;7.40;;
7703;SDS011;3894;49.700;10.770;2023-02-15T05:06:48;26.08;;;9.60;;
7703;SDS011;3894;49.700;10.770;2023-02-15T05:09:14;23.45;;;7.15;;
7703;SDS011;3894;49.700;10.770;2023-02-15T05:11:41;27.17;;;9.15;;
7703;SDS011;3894;49.700;10.770;2023-02-15T05:14:06;23.73;;;8.55;;
7703;SDS011;3894;49.700;10.770;2023-02-15T05:16:32;27.63;;;9.35;;
7703;SDS011;3894;49.700;10.770;2023-02-15T05:18:58;24.38;;;7.50;;
7703;SDS011;3894;49.700;10.770;2023-02-15T05:21:24;24.95;;;7.40;;
7703;SDS011;3894;49.700;10.770;2023-02-15T05:23:49;23.50;;;8.18;;
7703;SDS011;3894;49.700;10.770;2023-02-15T05:26:21;18.27;;;7.22;;
7703;SDS011;3894;49.700;10.770;2023-02-15T05:29:07;23.90;;;8.23;;
7703;SDS011;3894;49.700;10.770;2023-02-15T05:31:34;22.13;;;7.90;;
7703;SDS011;3894;49.700;10.770;2023-02-15T05:34:00;21.67;;;7.97;;
7703;SDS011;3894;49.700;10.770;2023-02-15T05:36:26;23.27;;;8.50;;
7703;SDS011;3894;49.700;10.770;2023-02-15T05:38:53;24.00;;;7.45;;
7703;SDS011;3894;49.700;10.770;2023-02-15T05:41:19;23.27;;;7.72;;
7703;SDS011;3894;49.700;10.770;2023-02-15T05:43:45;23.63;;;7.80;;
7703;SDS011;3894;49.700;10.770;2023-02-15T05:46:11;25.80;;;8.55;;
7703;SDS011;3894;49.700;10.770;2023-02-15T05:48:37;22.00;;;8.05;;
7703;SDS011;3894;49.700;10.770;2023-02-15T05:51:04;23.45;;;7.47;;
7703;SDS011;3894;49.700;10.770;2023-02-15T05:53:36;24.77;;;7.97;;
7703;SDS011;3894;49.700;10.770;2023-02-15T05:56:03;26.27;;;7.72;;
7703;SDS011;3894;49.700;10.770;2023-02-15T05:58:33;26.52;;;9.43;;
7703;SDS011;3894;49.700;10.770;2023-02-15T06:01:07;21.58;;;8.27;;
7703;SDS011;3894;49.700;10.770;2023-02-15T06:03:37;21.25;;;9.02;;
7703;SDS011;3894;49.700;10.770;2023-02-15T06:06:04;24.00;;;8.48;;
7703;SDS011;3894;49.700;10.770;2023-02-15T06:08:31;27.75;;;9.20;;
7703;SDS011;3894;49.700;10.770;2023-02-15T06:10:58;27.13;;;9.13;;
7703;SDS011;3894;49.700;10.770;2023-02-15T06:13:24;27.15;;;9.50;;
7703;SDS011;3894;49.700;10.770;2023-02-15T06:15:50;27.92;;;9.15;;
7703;SDS011;3894;49.700;10.770;2023-02-15T06:18:16;23.77;;;8.60;;
7703;SDS011;3894;49.700;10.770;2023-02-15T06:20:41;26.83;;;8.13;;
7703;SDS011;3894;49.700;10.770;2023-02-15T06:23:10;21.88;;;7.20;;
7703;SDS011;3894;49.700;10.770;2023-02-15T06:25:35;22.65;;;8.52;;
7703;SDS011;3894;49.700;10.770;2023-02-15T06:28:01;22.45;;;7.63;;
7703;SDS011;3894;49.700;10.770;2023-02-15T06:30:27;27.08;;;8.38;;
7703;SDS011;3894;49.700;10.770;2023-02-15T06:32:53;21.08;;;9.38;;
7703;SDS011;3894;49.700;10.770;2023-02-15T06:35:18;23.33;;;8.43;;
7703;SDS011;3894;49.700;10.770;2023-02-15T06:37:47;21.55;;;8.18;;
7703;SDS011;3894;49.700;10.770;2023-02-15T06:40:13;19.80;;;7.95;;
7703;SDS011;3894;49.700;10.770;2023-02-15T06:42:40;21.60;;;7.15;;
7703;SDS011;3894;49.700;10.770;2023-02-15T06:45:07;21.35;;;7.38;;
7703;SDS011;3894;49.700;10.770;2023-02-15T06:47:34;25.13;;;8.43;;
7703;SDS011;3894;49.700;10.770;2023-02-15T06:49:59;21.42;;;7.97;;
7703;SDS011;3894;49.700;10.770;2023-02-15T06:52:25;22.15;;;7.65;;
7703;SDS011;3894;49.700;10.770;2023-02-15T06:54:51;20.30;;;8.13;;
7703;SDS011;3894;49.700;10.770;2023-02-15T06:57:16;20.63;;;8.50;;
7703;SDS011;3894;49.700;10.770;2023-02-15T06:59:42;19.45;;;8.35;;
7703;SDS011;3894;49.700;10.770;2023-02-15T07:02:08;24.27;;;9.15;;
7703;SDS011;3894;49.700;10.770;2023-02-15T07:04:36;23.05;;;8.77;;
7703;SDS011;3894;49.700;10.770;2023-02-15T07:07:02;20.23;;;8.20;;
7703;SDS011;3894;49.700;10.770;2023-02-15T07:09:28;16.23;;;5.78;;
7703;SDS011;3894;49.700;10.770;2023-02-15T07:11:54;18.00;;;6.53;;
7703;SDS011;3894;49.700;10.770;2023-02-15T07:14:38;20.10;;;6.95;;
7703;SDS011;3894;49.700;10.770;2023-02-15T07:17:05;17.83;;;7.32;;
7703;SDS011;3894;49.700;10.770;2023-02-15T07:19:31;17.38;;;7.07;;
7703;SDS011;3894;49.700;10.770;2023-02-15T07:21:57;20.98;;;7.65;;
7703;SDS011;3894;49.700;10.770;2023-02-15T07:24:22;16.05;;;6.13;;
7703;SDS011;3894;49.700;10.770;2023-02-15T07:26:48;20.02;;;7.90;;
7703;SDS011;3894;49.700;10.770;2023-02-15T07:29:14;19.95;;;7.90;;
7703;SDS011;3894;49.700;10.770;2023-02-15T07:31:47;18.02;;;6.90;;
7703;SDS011;3894;49.700;10.770;2023-02-15T07:34:16;19.33;;;5.72;;
7703;SDS011;3894;49.700;10.770;2023-02-15T07:36:42;19.08;;;7.28;;
7703;SDS011;3894;49.700;10.770;2023-02-15T07:39:10;19.23;;;6.75;;
7703;SDS011;3894;49.700;10.770;2023-02-15T07:41:36;19.52;;;8.25;;
7703;SDS011;3894;49.700;10.770;2023-02-15T07:44:02;21.52;;;6.53;;
7703;SDS011;3894;49.700;10.770;2023-02-15T07:46:28;17.75;;;7.50;;
7703;SDS011;3894;49.700;10.770;2023-02-15T07:48:55;19.85;;;6.80;;
7703;SDS011;3894;49.700;10.770;2023-02-15T07:51:20;18.92;;;6.95;;
7703;SDS011;3894;49.700;10.770;2023-02-15T07:53:46;21.63;;;7.57;;
7703;SDS011;3894;49.700;10.770;2023-02-15T07:56:12;20.58;;;7.32;;
7703;SDS011;3894;49.700;10.770;2023-02-15T07:58:39;22.25;;;8.35;;
7703;SDS011;3894;49.700;10.770;2023-02-15T08:01:27;26.35;;;7.63;;
7703;SDS011;3894;49.700;10.770;2023-02-15T08:03:55;19.52;;;7.22;;
7703;SDS011;3894;49.700;10.770;2023-02-15T08:06:22;24.40;;;8.35;;
7703;SDS011;3894;49.700;10.770;2023-02-15T08:08:50;19.63;;;8.20;;
7703;SDS011;3894;49.700;10.770;2023-02-15T08:11:22;21.27;;;7.90;;
7703;SDS011;3894;49.700;10.770;2023-02-15T08:19:30;19.92;;;7.57;;
7703;SDS011;3894;49.700;10.770;2023-02-15T08:22:01;21.55;;;7.35;;
7703;SDS011;3894;49.700;10.770;2023-02-15T08:24:33;19.15;;;7.07;;
7703;SDS011;3894;49.700;10.770;2023-02-15T08:29:30;20.13;;;7.05;;
7703;SDS011;3894;49.700;10.770;2023-02-15T08:31:57;17.38;;;7.32;;
7703;SDS011;3894;49.700;10.770;2023-02-15T08:34:27;21.02;;;7.85;;
7703;SDS011;3894;49.700;10.770;2023-02-15T08:36:54;20.65;;;7.15;;
7703;SDS011;3894;49.700;10.770;2023-02-15T08:39:21;19.67;;;7.60;;
7703;SDS011;3894;49.700;10.770;2023-02-15T08:41:47;19.52;;;7.32;;
7703;SDS011;3894;49.700;10.770;2023-02-15T08:44:14;24.05;;;7.25;;
7703;SDS011;3894;49.700;10.770;2023-02-15T08:46:41;22.48;;;7.80;;
7703;SDS011;3894;49.700;10.770;2023-02-15T08:49:08;18.73;;;7.78;;
7703;SDS011;3894;49.700;10.770;2023-02-15T08:54:04;23.95;;;8.20;;
7703;SDS011;3894;49.700;10.770;2023-02-15T08:58:58;21.20;;;7.28;;
7703;SDS011;3894;49.700;10.770;2023-02-15T09:01:28;21.15;;;6.68;;
7703;SDS011;3894;49.700;10.770;2023-02-15T09:03:56;17.45;;;6.53;;
7703;SDS011;3894;49.700;10.770;2023-02-15T09:06:24;18.65;;;6.60;;
7703;SDS011;3894;49.700;10.770;2023-02-15T09:08:50;23.30;;;8.43;;
7703;SDS011;3894;49.700;10.770;2023-02-15T09:13:48;21.50;;;8.13;;
7703;SDS011;3894;49.700;10.770;2023-02-15T09:16:25;18.70;;;7.40;;
7703;SDS011;3894;49.700;10.770;2023-02-15T09:21:19;22.60;;;8.05;;
7703;SDS011;3894;49.700;10.770;2023-02-15T09:23:47;19.40;;;7.88;;
7703;SDS011;3894;49.700;10.770;2023-02-15T09:26:16;18.17;;;6.95;;
7703;SDS011;3894;49.700;10.770;2023-02-15T09:28:46;20.67;;;8.73;;
7703;SDS011;3894;49.700;10.770;2023-02-15T09:31:17;20.50;;;7.47;;
7703;SDS011;3894;49.700;10.770;2023-02-15T09:33:45;19.00;;;8.60;;
7703;SDS011;3894;49.700;10.770;2023-02-15T09:36:19;23.25;;;7.72;;
7703;SDS011;3894;49.700;10.770;2023-02-15T09:39:11;21.33;;;8.25;;
7703;SDS011;3894;49.700;10.770;2023-02-15T09:51:57;23.40;;;8.23;;
7703;SDS011;3894;49.700;10.770;2023-02-15T10:05:38;24.25;;;10.13;;
7703;SDS011;3894;49.700;10.770;2023-02-15T10:13:59;19.63;;;7.03;;
7703;SDS011;3894;49.700;10.770;2023-02-15T10:16:39;21.85;;;8.57;;
7703;SDS011;3894;49.700;10.770;2023-02-15T10:21:46;27.70;;;9.30;;
7703;SDS011;3894;49.700;10.770;2023-02-15T10:26:50;26.58;;;9.75;;
7703;SDS011;3894;49.700;10.770;2023-02-15T10:29:30;25.20;;;10.23;;
7703;SDS011;3894;49.700;10.770;2023-02-15T10:37:34;23.20;;;8.50;;
7703;SDS011;3894;49.700;10.770;2023-02-15T10:40:08;20.52;;;7.30;;
7703;SDS011;3894;49.700;10.770;2023-02-15T10:48:33;22.27;;;7.75;;
7703;SDS011;3894;49.700;10.770;2023-02-15T10:59:49;22.30;;;9.23;;
7703;SDS011;3894;49.700;10.770;2023-02-15T11:07:59;26.13;;;9.55;;
7703;SDS011;3894;49.700;10.770;2023-02-15T11:10:30;21.98;;;9.00;;
7703;SDS011;3894;49.700;10.770;2023-02-15T11:13:13;21.02;;;8.10;;
7703;SDS011;3894;49.700;10.770;2023-02-15T11:18:48;24.73;;;9.63;;
7703;SDS011;3894;49.700;10.770;2023-02-15T11:21:24;24.30;;;10.23;;
7703;SDS011;3894;49.700;10.770;2023-02-15T11:23:54;22.45;;;9.60;;
7703;SDS011;3894;49.700;10.770;2023-02-15T11:28:51;25.90;;;11.77;;
7703;SDS011;3894;49.700;10.770;2023-02-15T11:31:21;25.33;;;9.30;;
7703;SDS011;3894;49.700;10.770;2023-02-15T11:33:56;24.00;;;10.25;;
7703;SDS011;3894;49.700;10.770;2023-02-15T11:36:28;23.45;;;7.90;;
7703;SDS011;3894;49.700;10.770;2023-02-15T11:39:00;22.85;;;8.38;;
7703;SDS011;3894;49.700;10.770;2023-02-15T11:41:31;21.00;;;8.68;;
7703;SDS011;3894;49.700;10.770;2023-02-15T11:44:11;23.00;;;7.93;;
7703;SDS011;3894;49.700;10.770;2023-02-15T11:46:43;23.25;;;8.55;;
7703;SDS011;3894;49.700;10.770;2023-02-15T11:49:42;21.20;;;8.32;;
7703;SDS011;3894;49.700;10.770;2023-02-15T11:52:03;22.27;;;8.32;;
7703;SDS011;3894;49.700;10.770;2023-02-15T11:54:32;23.52;;;8.88;;
7703;SDS011;3894;49.700;10.770;2023-02-15T11:57:10;22.65;;;8.52;;
7703;SDS011;3894;49.700;10.770;2023-02-15T11:59:37;25.52;;;9.50;;
7703;SDS011;3894;49.700;10.770;2023-02-15T12:02:18;24.98;;;8.57;;
7703;SDS011;3894;49.700;10.770;2023-02-15T12:05:07;23.23;;;9.00;;
7703;SDS011;3894;49.700;10.770;2023-02-15T12:07:41;22.60;;;8.57;;
7703;SDS011;3894;49.700;10.770;2023-02-15T12:10:16;24.73;;;11.80;;
7703;SDS011;3894;49.700;10.770;2023-02-15T12:13:09;24.13;;;8.55;;
7703;SDS011;3894;49.700;10.770;2023-02-15T12:15:34;23.63;;;10.65;;
7703;SDS011;3894;49.700;10.770;2023-02-15T12:18:01;19.77;;;8.70;;
7703;SDS011;3894;49.700;10.770;2023-02-15T12:20:31;23.17;;;9.10;;
7703;SDS011;3894;49.700;10.770;2023-02-15T12:23:05;23.38;;;8.60;;
7703;SDS011;3894;49.700;10.770;2023-02-15T12:25:51;25.73;;;8.63;;
7703;SDS011;3894;49.700;10.770;2023-02-15T12:30:59;23.92;;;8.68;;
7703;SDS011;3894;49.700;10.770;2023-02-15T12:33:31;23.20;;;7.75;;
7703;SDS011;3894;49.700;10.770;2023-02-15T12:38:35;19.40;;;6.80;;
7703;SDS011;3894;49.700;10.770;2023-02-15T12:41:02;20.90;;;7.13;;
7703;SDS011;3894;49.700;10.770;2023-02-15T12:43:47;20.65;;;7.90;;
7703;SDS011;3894;49.700;10.770;2023-02-15T12:46:26;22.27;;;7.88;;
7703;SDS011;3894;49.700;10.770;2023-02-15T12:49:13;17.13;;;6.97;;
7703;SDS011;3894;49.700;10.770;2023-02-15T12:51:48;20.98;;;7.55;;
7703;SDS011;3894;49.700;10.770;2023-02-15T12:54:28;20.05;;;6.90;;
7703;SDS011;3894;49.700;10.770;2023-02-15T12:57:01;18.50;;;8.05;;
7703;SDS011;3894;49.700;10.770;2023-02-15T12:59:55;22.10;;;9.55;;
7703;SDS011;3894;49.700;10.770;2023-02-15T13:02:28;19.20;;;7.85;;
7703;SDS011;3894;49.700;10.770;2023-02-15T13:04:55;21.60;;;8.48;;
7703;SDS011;3894;49.700;10.770;2023-02-15T13:07:23;22.17;;;8.98;;
7703;SDS011;3894;49.700;10.770;2023-02-15T13:09:50;21.42;;;8.82;;
7703;SDS011;3894;49.700;10.770;2023-02-15T13:12:26;19.92;;;8.05;;
7703;SDS011;3894;49.700;10.770;2023-02-15T13:14:56;21.30;;;8.60;;
7703;SDS011;3894;49.700;10.770;2023-02-15T13:17:32;22.50;;;8.73;;
7703;SDS011;3894;49.700;10.770;2023-02-15T13:20:32;20.05;;;7.82;;
7703;SDS011;3894;49.700;10.770;2023-02-15T13:22:55;29.90;;;11.68;;
7703;SDS011;3894;49.700;10.770;2023-02-15T13:25:44;20.83;;;7.93;;
7703;SDS011;3894;49.700;10.770;2023-02-15T13:28:18;22.85;;;7.60;;
7703;SDS011;3894;49.700;10.770;2023-02-15T13:30:48;21.17;;;7.97;;
7703;SDS011;3894;49.700;10.770;2023-02-15T13:33:30;23.88;;;9.25;;
7703;SDS011;3894;49.700;10.770;2023-02-15T13:36:04;21.40;;;8.23;;
7703;SDS011;3894;49.700;10.770;2023-02-15T13:41:12;28.55;;;11.45;;
7703;SDS011;3894;49.700;10.770;2023-02-15T14:11:19;22.73;;;8.75;;
7703;SDS011;3894;49.700;10.770;2023-02-15T14:14:17;18.38;;;8.13;;
7703;SDS011;3894;49.700;10.770;2023-02-15T14:17:23;25.67;;;10.25;;
7703;SDS011;3894;49.700;10.770;2023-02-15T14:19:52;24.00;;;10.38;;
7703;SDS011;3894;49.700;10.770;2023-02-15T14:22:35;25.52;;;9.27;;
7703;SDS011;3894;49.700;10.770;2023-02-15T14:25:15;21.60;;;9.55;;
7703;SDS011;3894;49.700;10.770;2023-02-15T14:32:59;23.42;;;9.38;;
7703;SDS011;3894;49.700;10.770;2023-02-15T14:35:45;23.58;;;9.55;;
7703;SDS011;3894;49.700;10.770;2023-02-15T14:41:40;25.08;;;9.20;;
7703;SDS011;3894;49.700;10.770;2023-02-15T14:44:20;25.13;;;9.27;;
7703;SDS011;3894;49.700;10.770;2023-02-15T14:47:00;26.55;;;10.30;;
7703;SDS011;3894;49.700;10.770;2023-02-15T14:49:36;24.92;;;10.75;;
7703;SDS011;3894;49.700;10.770;2023-02-15T14:52:04;24.63;;;9.88;;
7703;SDS011;3894;49.700;10.770;2023-02-15T14:59:25;27.15;;;10.18;;
7703;SDS011;3894;49.700;10.770;2023-02-15T15:02:13;22.42;;;9.07;;
7703;SDS011;3894;49.700;10.770;2023-02-15T15:07:43;26.42;;;9.90;;
7703;SDS011;3894;49.700;10.770;2023-02-15T15:15:32;30.90;;;11.35;;
7703;SDS011;3894;49.700;10.770;2023-02-15T15:18:01;30.90;;;12.07;;
7703;SDS011;3894;49.700;10.770;2023-02-15T15:33:44;24.98;;;10.68;;
7703;SDS011;3894;49.700;10.770;2023-02-15T15:36:35;30.20;;;11.88;;
7703;SDS011;3894;49.700;10.770;2023-02-15T15:39:21;27.20;;;11.02;;
7703;SDS011;3894;49.700;10.770;2023-02-15T15:42:13;31.33;;;12.77;;
7703;SDS011;3894;49.700;10.770;2023-02-15T15:45:23;26.00;;;11.15;;
7703;SDS011;3894;49.700;10.770;2023-02-15T15:50:53;28.80;;;11.13;;
7703;SDS011;3894;49.700;10.770;2023-02-15T15:53:30;34.42;;;12.82;;
7703;SDS011;3894;49.700;10.770;2023-02-15T15:59:36;24.77;;;11.15;;
7703;SDS011;3894;49.700;10.770;2023-02-15T16:02:14;26.42;;;9.77;;
7703;SDS011;3894;49.700;10.770;2023-02-15T16:04:41;23.52;;;9.23;;
7703;SDS011;3894;49.700;10.770;2023-02-15T16:09:59;28.98;;;11.75;;
7703;SDS011;3894;49.700;10.770;2023-02-15T16:12:28;30.00;;;12.10;;
7703;SDS011;3894;49.700;10.770;2023-02-15T16:14:57;26.55;;;11.30;;
7703;SDS011;3894;49.700;10.770;2023-02-15T16:17:30;32.72;;;11.40;;
7703;SDS011;3894;49.700;10.770;2023-02-15T16:20:00;30.40;;;11.55;;
7703;SDS011;3894;49.700;10.770;2023-02-15T16:22:47;28.48;;;11.35;;
7703;SDS011;3894;49.700;10.770;2023-02-15T16:28:07;28.58;;;12.85;;
7703;SDS011;3894;49.700;10.770;2023-02-15T16:30:36;29.30;;;11.95;;
7703;SDS011;3894;49.700;10.770;2023-02-15T16:33:14;27.35;;;11.52;;
7703;SDS011;3894;49.700;10.770;2023-02-15T16:35:54;29.30;;;12.52;;
7703;SDS011;3894;49.700;10.770;2023-02-15T16:38:26;28.50;;;13.05;;
7703;SDS011;3894;49.700;10.770;2023-02-15T16:41:28;28.73;;;10.88;;
7703;SDS011;3894;49.700;10.770;2023-02-15T16:44:04;30.63;;;12.38;;
7703;SDS011;3894;49.700;10.770;2023-02-15T16:46:41;27.77;;;11.18;;
7703;SDS011;3894;49.700;10.770;2023-02-15T16:49:17;30.75;;;13.48;;
7703;SDS011;3894;49.700;10.770;2023-02-15T16:52:03;34.00;;;14.60;;
7703;SDS011;3894;49.700;10.770;2023-02-15T16:54:31;33.28;;;13.57;;
7703;SDS011;3894;49.700;10.770;2023-02-15T16:56:57;31.52;;;11.95;;
7703;SDS011;3894;49.700;10.770;2023-02-15T16:59:38;30.63;;;12.80;;
7703;SDS011;3894;49.700;10.770;2023-02-15T17:02:27;36.22;;;13.40;;
7703;SDS011;3894;49.700;10.770;2023-02-15T17:07:41;32.33;;;12.50;;
7703;SDS011;3894;49.700;10.770;2023-02-15T17:10:32;31.70;;;12.48;;
7703;SDS011;3894;49.700;10.770;2023-02-15T17:13:11;24.27;;;11.20;;
7703;SDS011;3894;49.700;10.770;2023-02-15T17:15:39;31.67;;;12.88;;
7703;SDS011;3894;49.700;10.770;2023-02-15T17:18:16;27.48;;;13.32;;
7703;SDS011;3894;49.700;10.770;2023-02-15T17:20:45;34.58;;;12.93;;
7703;SDS011;3894;49.700;10.770;2023-02-15T17:25:57;35.80;;;12.38;;
7703;SDS011;3894;49.700;10.770;2023-02-15T17:28:26;36.70;;;13.20;;
7703;SDS011;3894;49.700;10.770;2023-02-15T17:30:54;33.28;;;11.75;;
7703;SDS011;3894;49.700;10.770;2023-02-15T17:36:02;35.38;;;14.75;;
7703;SDS011;3894;49.700;10.770;2023-02-15T17:38:37;37.15;;;11.88;;
7703;SDS011;3894;49.700;10.770;2023-02-15T17:41:04;34.33;;;14.60;;
7703;SDS011;3894;49.700;10.770;2023-02-15T17:43:30;42.40;;;14.23;;
7703;SDS011;3894;49.700;10.770;2023-02-15T17:45:56;36.92;;;14.00;;
7703;SDS011;3894;49.700;10.770;2023-02-15T17:48:28;45.15;;;14.95;;
7703;SDS011;3894;49.700;10.770;2023-02-15T17:50:58;48.85;;;14.68;;
7703;SDS011;3894;49.700;10.770;2023-02-15T17:53:25;36.20;;;14.75;;
7703;SDS011;3894;49.700;10.770;2023-02-15T17:55:50;38.35;;;14.55;;
7703;SDS011;3894;49.700;10.770;2023-02-15T17:58:17;37.65;;;12.95;;
7703;SDS011;3894;49.700;10.770;2023-02-15T18:00:47;55.80;;;14.38;;
7703;SDS011;3894;49.700;10.770;2023-02-15T18:06:32;49.58;;;15.38;;
7703;SDS011;3894;49.700;10.770;2023-02-15T18:09:18;48.97;;;14.25;;
7703;SDS011;3894;49.700;10.770;2023-02-15T18:12:12;53.60;;;12.45;;
7703;SDS011;3894;49.700;10.770;2023-02-15T18:14:56;74.07;;;14.93;;
7703;SDS011;3894;49.700;10.770;2023-02-15T18:17:30;62.58;;;15.55;;
7703;SDS011;3894;49.700;10.770;2023-02-15T18:19:58;63.45;;;12.80;;
7703;SDS011;3894;49.700;10.770;2023-02-15T18:22:29;58.65;;;13.82;;
7703;SDS011;3894;49.700;10.770;2023-02-15T18:24:55;76.47;;;15.55;;
7703;SDS011;3894;49.700;10.770;2023-02-15T18:27:21;62.38;;;13.07;;
7703;SDS011;3894;49.700;10.770;2023-02-15T18:29:47;47.58;;;13.07;;
7703;SDS011;3894;49.700;10.770;2023-02-15T18:32:17;59.13;;;14.07;;
7703;SDS011;3894;49.700;10.770;2023-02-15T18:34:46;37.78;;;13.18;;
7703;SDS011;3894;49.700;10.770;2023-02-15T18:37:14;55.03;;;13.85;;
7703;SDS011;3894;49.700;10.770;2023-02-15T18:39:44;53.08;;;12.93;;